createdAt,value
2022-12-25T00:02:29.577Z,4.71
2022-12-25T00:05:15.410Z,4.73
2022-12-25T00:08:00.834Z,4.81
2022-12-25T00:10:46.086Z,4.87
2022-12-25T00:13:31.692Z,4.76
2022-12-25T00:16:21.112Z,4.67
2022-12-25T00:19:06.432Z,4.53
2022-12-25T00:21:52.059Z,4.45
2022-12-25T00:24:37.502Z,4.43
2022-12-25T00:27:22.852Z,4.65
2022-12-25T00:30:09.186Z,4.83
2022-12-25T00:32:54.559Z,4.94
2022-12-25T00:35:39.784Z,4.88
2022-12-25T00:38:26.237Z,4.74
2022-12-25T00:41:16.914Z,4.71
2022-12-25T00:44:02.372Z,4.62
2022-12-25T00:46:47.812Z,4.51
2022-12-25T00:49:33.419Z,4.45
2022-12-25T00:52:18.997Z,4.45
2022-12-25T00:55:04.892Z,4.57
2022-12-25T00:57:50.425Z,4.61
2022-12-25T01:00:35.766Z,4.63
2022-12-25T01:03:21.180Z,4.53
2022-12-25T01:06:08.477Z,4.55
2022-12-25T01:09:12.581Z,4.50
2022-12-25T01:11:57.849Z,4.49
2022-12-25T01:14:43.317Z,4.43
2022-12-25T01:17:29.070Z,4.52
2022-12-25T01:20:16.321Z,4.41
2022-12-25T01:23:01.747Z,4.41
2022-12-25T01:25:47.104Z,4.14
2022-12-25T01:28:32.708Z,4.19
2022-12-25T01:31:21.636Z,4.32
2022-12-25T01:34:07.062Z,4.30
2022-12-25T01:36:52.520Z,4.25
2022-12-25T01:39:37.855Z,4.24
2022-12-25T01:42:23.958Z,4.20
2022-12-25T01:45:43.989Z,4.36
2022-12-25T01:48:34.028Z,4.30
2022-12-25T01:51:28.752Z,4.35
2022-12-25T01:54:20.144Z,4.33
2022-12-25T01:57:09.241Z,4.37
2022-12-25T01:59:56.113Z,4.41
2022-12-25T02:02:42.103Z,4.24
2022-12-25T02:05:30.841Z,4.14
2022-12-25T02:08:18.291Z,4.24
2022-12-25T02:11:03.518Z,4.29
2022-12-25T02:13:49.160Z,4.25
2022-12-25T02:16:56.821Z,4.17
2022-12-25T02:20:11.563Z,4.29
2022-12-25T02:23:18.384Z,4.28
2022-12-25T02:26:18.287Z,4.13
2022-12-25T02:29:51.070Z,4.06
2022-12-25T02:33:16.609Z,4.02
2022-12-25T02:36:07.264Z,4.04
2022-12-25T02:39:17.844Z,3.91
2022-12-25T02:42:08.493Z,3.92
2022-12-25T02:45:12.746Z,4.07
2022-12-25T02:48:17.304Z,3.86
2022-12-25T02:51:26.295Z,3.96
2022-12-25T02:54:36.110Z,4.17
2022-12-25T02:57:45.729Z,4.10
2022-12-25T03:00:53.897Z,4.11
2022-12-25T03:04:00.425Z,4.12
2022-12-25T03:07:03.865Z,4.19
2022-12-25T03:10:12.762Z,4.08
2022-12-25T03:13:04.715Z,4.14
2022-12-25T03:16:09.307Z,4.02
2022-12-25T03:18:57.255Z,4.12
2022-12-25T03:22:01.275Z,4.19
2022-12-25T03:25:05.889Z,4.13
2022-12-25T03:27:54.199Z,4.32
2022-12-25T03:31:11.489Z,4.20
2022-12-25T03:34:43.042Z,4.19
2022-12-25T03:38:04.282Z,4.05
2022-12-25T03:41:18.264Z,4.12
2022-12-25T03:44:53.662Z,4.05
2022-12-25T03:48:04.417Z,3.92
2022-12-25T03:51:15.338Z,3.89
2022-12-25T03:54:24.061Z,3.77
2022-12-25T03:57:28.883Z,3.88
2022-12-25T04:00:38.072Z,3.77
2022-12-25T04:03:41.785Z,3.70
2022-12-25T04:06:45.923Z,3.63
2022-12-25T04:09:49.912Z,3.71
2022-12-25T04:12:53.930Z,3.63
2022-12-25T04:15:57.733Z,3.68
2022-12-25T04:19:02.071Z,3.76
2022-12-25T04:22:06.149Z,3.76
2022-12-25T04:25:10.283Z,3.86
2022-12-25T04:28:19.546Z,3.94
2022-12-25T04:31:24.146Z,3.78
2022-12-25T04:34:27.951Z,3.72
2022-12-25T04:37:13.707Z,3.87
2022-12-25T04:39:59.181Z,3.95
2022-12-25T04:42:44.622Z,4.16
2022-12-25T04:45:30.272Z,4.24
2022-12-25T04:48:15.590Z,4.07
2022-12-25T04:51:30.590Z,4.19
2022-12-25T04:54:16.042Z,4.04
2022-12-25T04:57:01.412Z,3.94
2022-12-25T04:59:46.815Z,3.79
2022-12-25T05:02:32.361Z,3.77
2022-12-25T05:05:17.780Z,3.71
2022-12-25T05:08:05.681Z,3.64
2022-12-25T05:10:51.423Z,3.49
2022-12-25T05:13:36.795Z,3.63
2022-12-25T05:16:22.321Z,3.58
2022-12-25T05:19:07.583Z,3.66
2022-12-25T05:21:53.929Z,3.64
2022-12-25T05:24:39.592Z,3.58
2022-12-25T05:27:24.879Z,3.61
2022-12-25T05:30:10.331Z,3.48
2022-12-25T05:32:55.687Z,3.60
2022-12-25T05:35:41.109Z,3.76
2022-12-25T05:38:26.530Z,3.99
2022-12-25T05:41:12.024Z,3.90
2022-12-25T05:43:57.582Z,3.87
2022-12-25T05:46:43.203Z,3.84
2022-12-25T05:49:28.521Z,3.78
2022-12-25T05:52:13.934Z,3.84
2022-12-25T05:54:59.913Z,3.93
2022-12-25T05:57:45.175Z,4.01
2022-12-25T06:00:31.322Z,4.08
2022-12-25T06:03:16.941Z,4.18
2022-12-25T06:06:03.371Z,4.12
2022-12-25T06:08:48.626Z,3.88
2022-12-25T06:11:33.929Z,3.97
2022-12-25T06:14:19.629Z,4.08
2022-12-25T06:17:05.343Z,4.18
2022-12-25T06:19:50.743Z,4.35
2022-12-25T06:22:36.108Z,4.39
2022-12-25T06:25:21.693Z,4.54
2022-12-25T06:28:07.495Z,4.58
2022-12-25T06:30:53.065Z,4.60
2022-12-25T06:33:38.845Z,4.83
2022-12-25T06:36:27.572Z,4.88
2022-12-25T06:39:12.778Z,4.73
2022-12-25T06:41:58.392Z,4.92
2022-12-25T06:44:44.428Z,4.83
2022-12-25T06:47:30.133Z,4.94
2022-12-25T06:50:15.930Z,4.96
2022-12-25T06:53:01.266Z,5.06
2022-12-25T06:55:46.734Z,5.19
2022-12-25T06:58:32.331Z,5.15
2022-12-25T07:01:27.483Z,5.15
2022-12-25T07:04:38.608Z,5.13
2022-12-25T07:07:23.987Z,5.21
2022-12-25T07:10:10.077Z,5.29
2022-12-25T07:12:55.401Z,5.23
2022-12-25T07:15:40.941Z,5.25
2022-12-25T07:18:26.926Z,5.34
2022-12-25T07:21:15.457Z,5.49
2022-12-25T07:24:01.448Z,5.34
2022-12-25T07:26:47.440Z,5.33
2022-12-25T07:29:32.989Z,5.32
2022-12-25T07:32:18.684Z,5.30
2022-12-25T07:35:04.753Z,5.50
2022-12-25T07:37:49.952Z,5.44
2022-12-25T07:40:35.380Z,5.46
2022-12-25T07:43:20.852Z,5.44
2022-12-25T07:46:06.282Z,5.52
2022-12-25T07:48:51.921Z,5.56
2022-12-25T07:51:37.635Z,5.66
2022-12-25T07:54:23.070Z,5.78
2022-12-25T07:57:08.625Z,5.78
2022-12-25T07:59:54.097Z,5.79
2022-12-25T08:02:40.215Z,5.75
2022-12-25T08:05:26.126Z,5.79
2022-12-25T08:08:11.698Z,5.88
2022-12-25T08:10:57.153Z,5.95
2022-12-25T08:13:42.371Z,5.97
2022-12-25T08:16:28.110Z,6.10
2022-12-25T08:19:14.818Z,6.24
2022-12-25T08:22:00.301Z,6.36
2022-12-25T08:24:45.826Z,6.53
2022-12-25T08:27:31.300Z,6.69
2022-12-25T08:30:17.021Z,6.74
2022-12-25T08:33:02.557Z,6.75
2022-12-25T08:35:48.257Z,7.09
2022-12-25T08:38:34.138Z,7.21
2022-12-25T08:41:19.468Z,7.17
2022-12-25T08:44:06.243Z,7.16
2022-12-25T08:46:51.808Z,7.40
2022-12-25T08:49:37.575Z,7.36
2022-12-25T08:52:23.465Z,7.56
2022-12-25T08:55:08.975Z,7.47
2022-12-25T08:57:55.339Z,7.19
2022-12-25T09:00:41.212Z,7.41
2022-12-25T09:03:27.554Z,7.43
2022-12-25T09:06:15.647Z,7.56
2022-12-25T09:09:00.800Z,7.61
2022-12-25T09:11:46.085Z,7.64
2022-12-25T09:14:32.014Z,7.47
2022-12-25T09:17:17.239Z,7.68
2022-12-25T09:20:03.131Z,7.55
2022-12-25T09:22:48.511Z,7.63
2022-12-25T09:25:34.003Z,7.57
2022-12-25T09:28:19.612Z,7.58
2022-12-25T09:31:05.282Z,7.55
2022-12-25T09:33:50.993Z,7.56
2022-12-25T09:36:37.009Z,7.70
2022-12-25T09:39:23.237Z,7.70
2022-12-25T09:42:17.395Z,7.69
2022-12-25T09:45:06.246Z,7.40
2022-12-25T09:47:55.123Z,7.40
2022-12-25T09:50:52.916Z,7.55
2022-12-25T09:53:44.135Z,7.66
2022-12-25T09:56:29.623Z,7.69
2022-12-25T09:59:25.898Z,7.89
2022-12-25T10:02:29.769Z,7.85
2022-12-25T10:05:29.759Z,7.80
2022-12-25T10:08:51.240Z,7.89
2022-12-25T10:12:00.000Z,7.72
2022-12-25T10:15:05.606Z,7.63
2022-12-25T10:17:56.830Z,7.54
2022-12-25T10:20:55.009Z,7.65
2022-12-25T10:23:41.896Z,7.73
2022-12-25T10:26:31.419Z,7.76
2022-12-25T10:29:21.557Z,7.75
2022-12-25T10:32:10.115Z,7.75
2022-12-25T10:34:55.697Z,7.72
2022-12-25T10:37:43.164Z,7.74
2022-12-25T10:40:51.595Z,7.87
2022-12-25T10:43:43.069Z,7.94
2022-12-25T10:46:29.752Z,7.88
2022-12-25T10:49:17.196Z,7.85
2022-12-25T10:52:03.847Z,8.03
2022-12-25T10:54:49.696Z,8.26
2022-12-25T10:57:45.503Z,8.21
2022-12-25T11:00:32.556Z,8.33
2022-12-25T11:03:25.379Z,8.35
2022-12-25T11:06:26.100Z,8.38
2022-12-25T11:09:16.513Z,8.37
2022-12-25T11:12:02.147Z,8.36
2022-12-25T11:14:58.835Z,8.08
2022-12-25T11:17:49.515Z,8.09
2022-12-25T11:20:36.617Z,8.21
2022-12-25T11:23:24.194Z,8.13
2022-12-25T11:26:11.614Z,8.15
2022-12-25T11:28:58.055Z,8.13
2022-12-25T11:31:43.737Z,8.06
2022-12-25T11:34:40.905Z,7.91
2022-12-25T11:37:40.484Z,8.06
2022-12-25T11:40:42.494Z,8.22
2022-12-25T11:43:36.442Z,8.27
2022-12-25T11:46:30.547Z,8.26
2022-12-25T11:49:20.947Z,8.13
2022-12-25T11:52:09.867Z,8.19
2022-12-25T11:55:01.638Z,8.21
2022-12-25T11:57:55.042Z,8.19
2022-12-25T12:00:41.701Z,8.12
2022-12-25T12:03:32.539Z,8.20
2022-12-25T12:06:28.806Z,8.06
2022-12-25T12:09:50.187Z,8.11
2022-12-25T12:13:31.022Z,8.04
2022-12-25T12:16:16.839Z,7.99
2022-12-25T12:19:23.796Z,7.91
2022-12-25T12:22:24.316Z,7.89
2022-12-25T12:25:16.738Z,7.78
2022-12-25T12:28:05.700Z,7.78
2022-12-25T12:31:00.691Z,7.89
2022-12-25T12:33:58.441Z,7.87
2022-12-25T12:36:44.141Z,7.84
2022-12-25T12:39:40.390Z,7.93
2022-12-25T12:42:31.429Z,7.94
2022-12-25T12:45:20.488Z,7.97
2022-12-25T12:48:16.683Z,8.10
2022-12-25T12:51:07.804Z,8.07
2022-12-25T12:54:21.446Z,7.94
2022-12-25T12:57:23.054Z,7.94
2022-12-25T13:00:19.344Z,7.83
2022-12-25T13:03:40.764Z,7.78
2022-12-25T13:06:38.095Z,7.82
2022-12-25T13:09:46.518Z,7.85
2022-12-25T13:12:32.348Z,7.77
2022-12-25T13:15:18.494Z,7.68
2022-12-25T13:18:07.520Z,7.63
2022-12-25T13:20:55.739Z,7.66
2022-12-25T13:23:41.557Z,7.62
2022-12-25T13:26:28.288Z,7.59
2022-12-25T13:29:42.812Z,7.64
2022-12-25T13:32:30.490Z,7.59
2022-12-25T13:35:17.486Z,7.56
2022-12-25T13:38:03.144Z,7.56
2022-12-25T13:41:12.682Z,7.57
2022-12-25T13:43:58.824Z,7.60
2022-12-25T13:46:44.628Z,7.46
2022-12-25T13:49:30.875Z,7.48
2022-12-25T13:52:21.113Z,7.59
2022-12-25T13:55:15.908Z,7.43
2022-12-25T13:58:04.620Z,7.62
2022-12-25T14:00:53.084Z,7.58
2022-12-25T14:03:45.319Z,7.73
2022-12-25T14:06:31.267Z,7.67
2022-12-25T14:09:18.104Z,7.79
2022-12-25T14:12:03.948Z,7.67
2022-12-25T14:14:51.877Z,7.53
2022-12-25T14:17:37.625Z,7.61
2022-12-25T14:20:26.851Z,7.52
2022-12-25T14:23:16.105Z,7.74
2022-12-25T14:26:01.944Z,7.64
2022-12-25T14:29:01.203Z,7.65
2022-12-25T14:31:47.233Z,7.56
2022-12-25T14:34:34.200Z,7.63
2022-12-25T14:37:24.276Z,7.72
2022-12-25T14:40:19.393Z,7.77
2022-12-25T14:43:19.873Z,7.67
2022-12-25T14:46:08.275Z,7.71
2022-12-25T14:49:07.260Z,7.69
2022-12-25T14:51:52.545Z,7.58
2022-12-25T14:54:38.125Z,7.58
2022-12-25T14:57:28.231Z,7.61
2022-12-25T15:00:29.297Z,7.54
2022-12-25T15:03:24.512Z,7.51
2022-12-25T15:06:22.484Z,7.48
2022-12-25T15:09:16.102Z,7.52
2022-12-25T15:12:02.053Z,7.53
2022-12-25T15:14:47.567Z,7.44
2022-12-25T15:17:35.939Z,7.51
2022-12-25T15:20:28.898Z,7.56
2022-12-25T15:23:20.354Z,7.46
2022-12-25T15:26:05.979Z,7.49
2022-12-25T15:28:55.185Z,7.48
2022-12-25T15:31:41.076Z,7.49
2022-12-25T15:34:28.054Z,7.30
2022-12-25T15:37:14.151Z,7.47
2022-12-25T15:39:59.769Z,7.44
2022-12-25T15:42:47.890Z,7.45
2022-12-25T15:45:33.499Z,7.44
2022-12-25T15:48:18.992Z,7.43
2022-12-25T15:51:04.369Z,7.39
2022-12-25T15:53:49.650Z,7.25
2022-12-25T15:56:42.138Z,7.41
2022-12-25T15:59:27.553Z,7.42
2022-12-25T16:02:18.832Z,7.46
2022-12-25T16:05:10.138Z,7.50
2022-12-25T16:07:56.197Z,7.44
2022-12-25T16:10:41.818Z,7.49
2022-12-25T16:13:27.433Z,7.52
2022-12-25T16:16:13.204Z,7.57
2022-12-25T16:18:58.564Z,7.54
2022-12-25T16:21:46.021Z,7.52
2022-12-25T16:24:31.517Z,7.55
2022-12-25T16:27:17.072Z,7.44
2022-12-25T16:30:03.315Z,7.53
2022-12-25T16:32:49.888Z,7.46
2022-12-25T16:35:35.348Z,7.65
2022-12-25T16:38:20.668Z,7.62
2022-12-25T16:41:06.340Z,7.56
2022-12-25T16:43:51.593Z,7.59
2022-12-25T16:46:39.572Z,7.59
2022-12-25T16:49:25.337Z,7.73
2022-12-25T16:52:11.394Z,7.72
2022-12-25T16:54:57.824Z,7.70
2022-12-25T16:57:43.430Z,7.70
2022-12-25T17:00:29.003Z,7.75
2022-12-25T17:03:14.433Z,7.79
2022-12-25T17:05:59.971Z,7.81
2022-12-25T17:08:45.973Z,7.79
2022-12-25T17:11:32.100Z,7.79
2022-12-25T17:14:17.656Z,7.80
2022-12-25T17:17:03.548Z,7.82
2022-12-25T17:19:49.164Z,7.80
2022-12-25T17:22:34.522Z,7.82
2022-12-25T17:25:19.774Z,7.79
2022-12-25T17:28:05.276Z,7.88
2022-12-25T17:30:50.836Z,7.78
2022-12-25T17:33:38.382Z,7.76
2022-12-25T17:36:23.902Z,7.63
2022-12-25T17:39:10.270Z,7.73
2022-12-25T17:41:55.907Z,7.78
2022-12-25T17:44:41.482Z,7.78
2022-12-25T17:47:27.055Z,7.81
2022-12-25T17:50:12.725Z,7.84
2022-12-25T17:52:58.301Z,7.80
2022-12-25T17:55:44.305Z,7.75
2022-12-25T17:58:30.007Z,7.77
2022-12-25T18:01:16.785Z,7.75
2022-12-25T18:04:03.031Z,7.71
2022-12-25T18:06:50.086Z,7.83
2022-12-25T18:09:36.259Z,7.81
2022-12-25T18:12:21.648Z,7.87
2022-12-25T18:15:07.793Z,7.89
2022-12-25T18:17:53.299Z,7.75
2022-12-25T18:20:41.177Z,7.93
2022-12-25T18:23:26.768Z,7.96
2022-12-25T18:26:12.378Z,7.85
2022-12-25T18:28:58.219Z,7.86
2022-12-25T18:31:43.872Z,7.82
2022-12-25T18:34:29.271Z,7.90
2022-12-25T18:37:15.097Z,7.84
2022-12-25T18:40:00.928Z,7.82
2022-12-25T18:42:46.537Z,7.89
2022-12-25T18:45:32.369Z,7.80
2022-12-25T18:48:17.847Z,7.82
2022-12-25T18:51:08.681Z,7.90
2022-12-25T18:53:54.839Z,7.85
2022-12-25T18:56:40.639Z,7.82
2022-12-25T18:59:26.070Z,7.84
2022-12-25T19:02:11.937Z,7.89
2022-12-25T19:04:57.846Z,7.76
2022-12-25T19:07:43.601Z,7.77
2022-12-25T19:10:29.006Z,7.69
2022-12-25T19:13:14.528Z,7.80
2022-12-25T19:15:59.997Z,7.83
2022-12-25T19:18:46.168Z,7.88
2022-12-25T19:21:31.868Z,7.80
2022-12-25T19:24:17.580Z,7.84
2022-12-25T19:27:04.208Z,7.85
2022-12-25T19:29:49.536Z,7.87
2022-12-25T19:32:34.853Z,7.84
2022-12-25T19:35:20.379Z,7.93
2022-12-25T19:38:05.688Z,7.90
2022-12-25T19:41:00.560Z,7.95
2022-12-25T19:43:47.822Z,7.93
2022-12-25T19:46:36.253Z,7.88
2022-12-25T19:49:21.489Z,7.95
2022-12-25T19:52:07.084Z,7.89
2022-12-25T19:54:52.934Z,8.02
2022-12-25T19:57:39.976Z,7.93
2022-12-25T20:00:25.531Z,7.88
2022-12-25T20:03:12.482Z,7.88
2022-12-25T20:05:58.213Z,7.84
2022-12-25T20:08:44.282Z,7.92
2022-12-25T20:11:31.729Z,7.90
2022-12-25T20:14:17.854Z,7.93
2022-12-25T20:17:03.469Z,7.96
2022-12-25T20:19:48.844Z,7.91
2022-12-25T20:22:34.352Z,7.97
2022-12-25T20:25:19.663Z,7.89
2022-12-25T20:28:05.241Z,7.99
2022-12-25T20:30:50.473Z,7.78
2022-12-25T20:33:36.312Z,8.01
2022-12-25T20:36:21.965Z,8.04
2022-12-25T20:39:09.840Z,8.13
2022-12-25T20:41:55.663Z,8.13
2022-12-25T20:44:40.980Z,8.10
2022-12-25T20:47:26.527Z,8.11
2022-12-25T20:50:12.225Z,8.19
2022-12-25T20:52:57.867Z,8.09
2022-12-25T20:55:48.189Z,8.18
2022-12-25T20:58:33.548Z,8.30
2022-12-25T21:01:18.861Z,8.25
2022-12-25T21:04:04.828Z,8.26
2022-12-25T21:06:50.330Z,8.24
2022-12-25T21:09:36.160Z,8.28
2022-12-25T21:12:21.593Z,8.27
2022-12-25T21:15:13.234Z,8.32
2022-12-25T21:18:02.507Z,8.34
2022-12-25T21:20:50.768Z,8.48
2022-12-25T21:23:38.516Z,8.52
2022-12-25T21:26:26.429Z,8.55
2022-12-25T21:29:11.680Z,8.46
2022-12-25T21:32:16.006Z,8.48
2022-12-25T21:35:01.383Z,8.62
2022-12-25T21:37:47.016Z,8.53
2022-12-25T21:40:36.828Z,8.44
2022-12-25T21:43:22.289Z,8.52
2022-12-25T21:46:13.896Z,8.55
2022-12-25T21:49:00.127Z,8.45
2022-12-25T21:52:04.038Z,8.29
2022-12-25T21:54:52.381Z,8.34
2022-12-25T21:57:38.243Z,8.33
2022-12-25T22:00:23.593Z,8.39
2022-12-25T22:03:09.347Z,8.48
2022-12-25T22:06:21.180Z,8.48
2022-12-25T22:09:08.959Z,8.49
2022-12-25T22:12:13.233Z,8.51
2022-12-25T22:15:02.913Z,8.52
2022-12-25T22:18:07.144Z,8.63
2022-12-25T22:20:52.751Z,8.61
2022-12-25T22:23:38.340Z,8.61
2022-12-25T22:26:23.597Z,8.59
2022-12-25T22:29:09.198Z,8.59
2022-12-25T22:31:55.029Z,8.50
2022-12-25T22:34:40.892Z,8.48
2022-12-25T22:37:26.673Z,8.49
2022-12-25T22:40:15.424Z,8.45
2022-12-25T22:43:00.809Z,8.55
2022-12-25T22:45:46.188Z,8.60
2022-12-25T22:48:31.722Z,8.54
2022-12-25T22:51:17.141Z,8.64
2022-12-25T22:54:03.904Z,8.55
2022-12-25T22:56:51.567Z,8.65
2022-12-25T22:59:36.945Z,8.53
2022-12-25T23:02:22.684Z,8.46
2022-12-25T23:05:08.168Z,8.57
2022-12-25T23:07:53.702Z,8.51
2022-12-25T23:10:39.228Z,8.51
2022-12-25T23:13:43.239Z,8.71
2022-12-25T23:16:29.196Z,8.84
2022-12-25T23:19:33.258Z,9.04
2022-12-25T23:22:37.247Z,9.10
2022-12-25T23:25:41.151Z,9.07
2022-12-25T23:28:45.048Z,9.00
2022-12-25T23:31:34.411Z,9.08
2022-12-25T23:34:20.821Z,9.04
2022-12-25T23:37:06.897Z,9.01
2022-12-25T23:39:52.201Z,9.05
2022-12-25T23:42:37.496Z,9.04
2022-12-25T23:45:22.782Z,9.01
2022-12-25T23:48:08.328Z,9.00
2022-12-25T23:50:53.822Z,8.95
2022-12-25T23:53:39.773Z,8.93
2022-12-25T23:56:25.228Z,9.06
2022-12-25T23:59:11.472Z,9.07
